createdAt,value
2019-05-29T00:00:13.408Z,78.19
2019-05-29T00:02:43.071Z,78.33
2019-05-29T00:05:12.201Z,78.37
2019-05-29T00:07:41.064Z,78.40
2019-05-29T00:10:10.470Z,77.78
2019-05-29T00:12:39.294Z,78.37
2019-05-29T00:15:08.458Z,78.49
2019-05-29T00:17:37.162Z,78.34
2019-05-29T00:20:06.684Z,78.10
2019-05-29T00:22:35.463Z,78.14
2019-05-29T00:25:06.722Z,78.52
2019-05-29T00:27:35.429Z,78.83
2019-05-29T00:30:06.926Z,78.89
2019-05-29T00:32:36.170Z,78.38
2019-05-29T00:35:08.224Z,78.97
2019-05-29T00:37:37.236Z,79.50
2019-05-29T00:40:08.921Z,81.16
2019-05-29T00:42:37.777Z,81.94
2019-05-29T00:45:11.359Z,82.39
2019-05-29T00:47:40.317Z,83.29
2019-05-29T00:50:10.082Z,84.48
2019-05-29T00:52:38.917Z,86.17
2019-05-29T00:55:08.723Z,86.45
2019-05-29T00:57:37.557Z,86.61
2019-05-29T01:00:07.224Z,87.17
2019-05-29T01:02:35.956Z,87.31
2019-05-29T01:05:06.688Z,87.57
2019-05-29T01:07:35.446Z,88.15
2019-05-29T01:10:05.806Z,88.29
2019-05-29T01:12:34.547Z,88.38
2019-05-29T01:15:03.304Z,88.32
2019-05-29T01:17:32.028Z,88.46
2019-05-29T01:20:00.748Z,88.56
2019-05-29T01:22:29.622Z,89.07
2019-05-29T01:24:58.354Z,88.46
2019-05-29T01:27:27.211Z,88.58
2019-05-29T01:29:56.216Z,89.26
2019-05-29T01:32:24.944Z,89.35
2019-05-29T01:34:53.666Z,89.49
2019-05-29T01:37:22.442Z,89.40
2019-05-29T01:39:51.179Z,89.60
2019-05-29T01:42:19.912Z,89.80
2019-05-29T01:44:48.792Z,90.28
2019-05-29T01:47:17.521Z,91.21
2019-05-29T01:49:46.646Z,91.62
2019-05-29T01:52:15.602Z,91.95
2019-05-29T01:54:44.318Z,92.11
2019-05-29T01:57:13.055Z,92.03
2019-05-29T01:59:42.039Z,91.92
2019-05-29T02:02:10.760Z,91.40
2019-05-29T02:04:39.492Z,91.11
2019-05-29T02:07:08.361Z,90.87
2019-05-29T02:09:37.094Z,90.58
2019-05-29T02:12:05.922Z,90.30
2019-05-29T02:14:34.727Z,90.16
2019-05-29T02:17:03.449Z,89.55
2019-05-29T02:19:32.175Z,88.65
2019-05-29T02:22:01.144Z,87.77
2019-05-29T02:24:29.869Z,87.23
2019-05-29T02:26:58.592Z,86.75
2019-05-29T02:29:27.671Z,86.11
2019-05-29T02:31:56.413Z,85.71
2019-05-29T02:34:27.273Z,85.61
2019-05-29T02:36:55.721Z,85.49
2019-05-29T02:39:25.637Z,85.31
2019-05-29T02:41:54.886Z,85.06
2019-05-29T02:44:25.281Z,84.79
2019-05-29T02:46:54.271Z,84.70
2019-05-29T02:49:23.871Z,84.95
2019-05-29T02:51:53.045Z,85.16
2019-05-29T02:54:22.556Z,85.59
2019-05-29T02:56:51.375Z,85.79
2019-05-29T02:59:21.055Z,85.84
2019-05-29T03:01:50.144Z,85.95
2019-05-29T03:04:18.989Z,86.00
2019-05-29T03:06:47.901Z,86.13
2019-05-29T03:09:16.627Z,86.07
2019-05-29T03:11:45.352Z,86.10
2019-05-29T03:14:14.139Z,86.45
2019-05-29T03:16:42.874Z,86.57
2019-05-29T03:19:11.596Z,86.88
2019-05-29T03:21:40.555Z,87.16
2019-05-29T03:24:09.288Z,87.47
2019-05-29T03:26:38.452Z,87.39
2019-05-29T03:29:07.471Z,87.68
2019-05-29T03:31:43.492Z,87.58
2019-05-29T03:34:06.661Z,87.80
2019-05-29T03:36:43.883Z,88.33
2019-05-29T03:39:07.264Z,88.67
2019-05-29T03:41:35.998Z,88.68
2019-05-29T03:44:04.858Z,89.03
2019-05-29T03:46:41.128Z,88.74
2019-05-29T03:49:14.075Z,88.40
2019-05-29T03:51:42.563Z,87.98
2019-05-29T03:54:11.294Z,87.51
2019-05-29T03:56:40.035Z,87.14
2019-05-29T03:59:08.997Z,86.65
2019-05-29T04:01:39.298Z,86.46
2019-05-29T04:04:08.032Z,86.36
2019-05-29T04:06:37.573Z,86.28
2019-05-29T04:09:07.374Z,85.51
2019-05-29T04:11:37.954Z,84.91
2019-05-29T04:14:07.276Z,84.72
2019-05-29T04:16:54.102Z,83.88
2019-05-29T04:19:07.119Z,83.60
2019-05-29T04:21:38.676Z,82.81
2019-05-29T04:24:08.116Z,81.89
2019-05-29T04:26:45.923Z,81.86
2019-05-29T04:29:14.849Z,81.45
2019-05-29T04:31:43.566Z,80.95
2019-05-29T04:34:12.540Z,79.25
2019-05-29T04:36:41.350Z,78.44
2019-05-29T04:39:10.110Z,79.09
2019-05-29T04:41:39.335Z,78.38
2019-05-29T04:44:08.309Z,77.96
2019-05-29T04:46:38.495Z,78.45
2019-05-29T04:49:07.603Z,77.92
2019-05-29T04:51:39.687Z,76.83
2019-05-29T04:54:08.226Z,78.17
2019-05-29T04:56:37.265Z,75.22
2019-05-29T04:59:05.999Z,72.72
2019-05-29T05:01:35.097Z,72.25
2019-05-29T05:04:03.873Z,69.97
2019-05-29T05:06:33.219Z,69.05
2019-05-29T05:09:01.999Z,66.55
2019-05-29T05:11:31.326Z,67.87
2019-05-29T05:14:01.700Z,68.02
2019-05-29T05:16:31.684Z,69.05
2019-05-29T05:19:00.686Z,69.06
2019-05-29T05:21:29.851Z,68.09
2019-05-29T05:23:58.717Z,67.61
2019-05-29T05:26:27.762Z,66.81
2019-05-29T05:28:56.502Z,65.60
2019-05-29T05:31:25.224Z,64.02
2019-05-29T05:33:54.092Z,63.88
2019-05-29T05:36:23.772Z,61.17
2019-05-29T05:38:52.491Z,61.97
2019-05-29T05:41:21.257Z,61.19
2019-05-29T05:43:49.968Z,60.25
2019-05-29T05:46:18.681Z,60.27
2019-05-29T05:48:47.584Z,61.67
2019-05-29T05:51:16.297Z,61.40
2019-05-29T05:53:45.012Z,61.31
2019-05-29T05:56:13.776Z,62.72
2019-05-29T05:58:42.563Z,62.98
2019-05-29T06:01:11.295Z,62.21
2019-05-29T06:03:42.215Z,63.61
2019-05-29T06:06:11.308Z,64.98
2019-05-29T06:08:40.305Z,64.28
2019-05-29T06:11:09.265Z,61.07
2019-05-29T06:13:38.392Z,60.83
2019-05-29T06:16:07.182Z,60.03
2019-05-29T06:18:36.561Z,59.03
2019-05-29T06:21:05.368Z,59.39
2019-05-29T06:23:34.771Z,57.53
2019-05-29T06:26:03.819Z,58.41
2019-05-29T06:28:32.993Z,56.37
2019-05-29T06:31:01.858Z,56.03
2019-05-29T06:33:30.725Z,54.75
2019-05-29T06:35:59.445Z,54.08
2019-05-29T06:38:28.168Z,53.12
2019-05-29T06:40:57.145Z,53.88
2019-05-29T06:43:26.670Z,52.94
2019-05-29T06:45:55.893Z,52.46
2019-05-29T06:48:41.408Z,53.37
2019-05-29T06:50:57.957Z,53.16
2019-05-29T06:53:26.797Z,51.87
2019-05-29T06:55:57.220Z,49.63
2019-05-29T06:58:26.091Z,47.32
2019-05-29T07:00:54.805Z,47.32
2019-05-29T07:03:23.706Z,48.37
2019-05-29T07:05:53.025Z,48.76
2019-05-29T07:08:37.520Z,48.34
2019-05-29T07:10:52.525Z,48.54
2019-05-29T07:13:21.255Z,49.30
2019-05-29T07:15:50.085Z,49.14
2019-05-29T07:18:18.960Z,49.56
2019-05-29T07:20:47.695Z,48.34
2019-05-29T07:23:16.418Z,48.64
2019-05-29T07:25:45.646Z,47.01
2019-05-29T07:28:14.568Z,47.55
2019-05-29T07:30:49.842Z,48.60
2019-05-29T07:33:13.787Z,48.64
2019-05-29T07:35:43.540Z,47.70
2019-05-29T07:38:12.409Z,45.90
2019-05-29T07:40:42.648Z,45.53
2019-05-29T07:43:11.683Z,45.90
2019-05-29T07:45:40.709Z,45.33
2019-05-29T07:48:10.710Z,46.83
2019-05-29T07:50:40.091Z,46.54
2019-05-29T07:53:08.925Z,44.33
2019-05-29T07:55:38.435Z,43.68
2019-05-29T07:58:10.166Z,45.51
2019-05-29T08:01:02.646Z,44.35
2019-05-29T08:03:09.911Z,45.30
2019-05-29T08:05:39.179Z,45.51
2019-05-29T08:08:08.022Z,43.93
2019-05-29T08:10:36.917Z,43.54
2019-05-29T08:13:06.906Z,44.31
2019-05-29T08:15:52.100Z,43.42
2019-05-29T08:18:06.167Z,42.98
2019-05-29T08:20:34.881Z,41.91
2019-05-29T08:23:03.602Z,40.68
2019-05-29T08:25:32.475Z,40.66
2019-05-29T08:28:01.180Z,41.35
2019-05-29T08:30:29.907Z,39.87
2019-05-29T08:32:58.741Z,38.74
2019-05-29T08:35:27.462Z,38.24
2019-05-29T08:37:56.183Z,39.45
2019-05-29T08:40:25.049Z,38.06
2019-05-29T08:42:53.835Z,38.32
2019-05-29T08:45:22.565Z,37.82
2019-05-29T08:47:51.941Z,38.08
2019-05-29T08:50:20.929Z,36.95
2019-05-29T08:52:50.118Z,37.27
2019-05-29T08:55:19.380Z,36.52
2019-05-29T08:57:48.451Z,38.50
2019-05-29T09:00:18.521Z,39.39
2019-05-29T09:02:48.910Z,38.20
2019-05-29T09:05:17.838Z,37.61
2019-05-29T09:07:48.347Z,37.79
2019-05-29T09:10:17.247Z,38.27
2019-05-29T09:12:54.996Z,37.84
2019-05-29T09:15:21.216Z,37.60
2019-05-29T09:17:47.337Z,38.83
2019-05-29T09:20:57.446Z,37.12
2019-05-29T09:23:01.887Z,37.04
2019-05-29T09:25:30.607Z,36.61
2019-05-29T09:27:59.372Z,35.76
2019-05-29T09:30:28.495Z,36.48
2019-05-29T09:32:57.222Z,36.00
2019-05-29T09:35:25.943Z,35.28
2019-05-29T09:37:54.831Z,36.01
2019-05-29T09:40:24.979Z,35.43
2019-05-29T09:42:53.753Z,36.06
2019-05-29T09:45:23.465Z,34.10
2019-05-29T09:47:52.275Z,33.81
2019-05-29T09:50:23.383Z,32.92
2019-05-29T09:52:53.213Z,36.02
2019-05-29T09:55:22.225Z,32.52
2019-05-29T09:57:53.474Z,32.30
2019-05-29T10:00:21.545Z,32.42
2019-05-29T10:02:50.282Z,32.55
2019-05-29T10:05:19.111Z,31.99
2019-05-29T10:07:47.964Z,30.97
2019-05-29T10:10:17.578Z,30.43
2019-05-29T10:12:46.308Z,32.12
2019-05-29T10:15:15.741Z,32.99
2019-05-29T10:17:44.590Z,32.25
2019-05-29T10:20:14.859Z,32.72
2019-05-29T10:22:43.633Z,33.07
2019-05-29T10:25:13.480Z,31.13
2019-05-29T10:27:42.213Z,30.73
2019-05-29T10:30:11.956Z,32.07
2019-05-29T10:32:42.452Z,33.70
2019-05-29T10:35:11.428Z,32.36
2019-05-29T10:37:40.323Z,33.24
2019-05-29T10:40:09.755Z,32.30
2019-05-29T10:42:38.488Z,33.27
2019-05-29T10:45:12.505Z,32.26
2019-05-29T10:47:41.311Z,31.84
2019-05-29T10:50:11.288Z,32.39
2019-05-29T10:52:40.128Z,31.89
2019-05-29T10:55:12.946Z,32.53
2019-05-29T10:57:41.692Z,33.03
2019-05-29T11:00:10.866Z,33.17
2019-05-29T11:02:39.683Z,32.46
2019-05-29T11:05:08.892Z,32.00
2019-05-29T11:07:37.756Z,33.20
2019-05-29T11:10:08.299Z,33.67
2019-05-29T11:12:39.526Z,32.56
2019-05-29T11:15:20.710Z,33.67
2019-05-29T11:17:40.059Z,33.52
2019-05-29T11:20:10.483Z,34.01
2019-05-29T11:22:39.392Z,33.63
2019-05-29T11:25:21.578Z,32.78
2019-05-29T11:27:38.934Z,32.32
2019-05-29T11:30:09.872Z,32.73
2019-05-29T11:32:38.589Z,31.39
2019-05-29T11:35:08.125Z,31.60
2019-05-29T11:37:36.925Z,32.47
2019-05-29T11:40:07.918Z,31.79
2019-05-29T11:42:36.632Z,31.20
2019-05-29T11:45:10.310Z,32.34
2019-05-29T11:47:39.022Z,30.43
2019-05-29T11:50:19.162Z,31.03
2019-05-29T11:52:43.220Z,31.24
2019-05-29T11:55:12.770Z,30.68
2019-05-29T11:57:43.481Z,33.19
2019-05-29T12:00:20.430Z,29.86
2019-05-29T12:02:45.183Z,31.82
2019-05-29T12:05:15.651Z,29.45
2019-05-29T12:07:44.526Z,29.78
2019-05-29T12:10:13.882Z,30.44
2019-05-29T12:12:42.591Z,31.16
2019-05-29T12:15:16.022Z,28.75
2019-05-29T12:17:42.447Z,30.49
2019-05-29T12:20:26.931Z,31.49
2019-05-29T12:23:10.956Z,31.34
2019-05-29T12:25:16.199Z,31.82
2019-05-29T12:27:44.950Z,30.37
2019-05-29T12:30:17.320Z,30.41
2019-05-29T12:32:46.044Z,30.34
2019-05-29T12:35:15.164Z,28.83
2019-05-29T12:37:44.029Z,28.99
2019-05-29T12:40:14.312Z,28.58
2019-05-29T12:42:45.051Z,28.06
2019-05-29T12:45:14.058Z,28.21
2019-05-29T12:47:42.777Z,28.09
2019-05-29T12:50:13.661Z,29.23
2019-05-29T12:52:43.036Z,29.18
2019-05-29T12:55:12.252Z,28.03
2019-05-29T12:57:41.091Z,28.40
2019-05-29T13:00:11.192Z,27.75
2019-05-29T13:02:40.047Z,28.29
2019-05-29T13:05:18.005Z,28.14
2019-05-29T13:07:39.918Z,28.40
2019-05-29T13:10:09.436Z,28.68
2019-05-29T13:12:38.261Z,28.07
2019-05-29T13:15:15.135Z,28.84
2019-05-29T13:17:43.852Z,28.29
2019-05-29T13:20:21.211Z,28.64
2019-05-29T13:22:43.688Z,28.25
2019-05-29T13:25:14.318Z,27.98
2019-05-29T13:27:43.045Z,28.27
2019-05-29T13:30:13.205Z,28.70
2019-05-29T13:32:42.521Z,27.41
2019-05-29T13:35:12.939Z,28.20
2019-05-29T13:37:41.826Z,27.33
2019-05-29T13:40:14.244Z,28.38
2019-05-29T13:42:42.975Z,28.59
2019-05-29T13:45:17.690Z,29.93
2019-05-29T13:47:42.696Z,29.13
2019-05-29T13:50:12.742Z,29.73
2019-05-29T13:52:41.866Z,30.17
2019-05-29T13:55:12.131Z,31.00
2019-05-29T13:57:40.866Z,31.18
2019-05-29T14:00:33.696Z,30.84
2019-05-29T14:02:44.339Z,30.26
2019-05-29T14:05:15.074Z,29.51
2019-05-29T14:07:43.956Z,30.47
2019-05-29T14:10:13.100Z,30.39
2019-05-29T14:12:41.840Z,30.47
2019-05-29T14:15:12.423Z,30.76
2019-05-29T14:17:41.261Z,32.07
2019-05-29T14:20:11.260Z,30.59
2019-05-29T14:22:40.309Z,30.82
2019-05-29T14:25:11.538Z,29.90
2019-05-29T14:27:40.544Z,30.28
2019-05-29T14:30:11.291Z,30.95
2019-05-29T14:32:40.036Z,32.49
2019-05-29T14:35:10.997Z,32.88
2019-05-29T14:37:40.132Z,34.13
2019-05-29T14:40:12.133Z,35.05
2019-05-29T14:42:41.071Z,34.98
2019-05-29T14:45:10.605Z,33.35
2019-05-29T14:47:39.539Z,32.08
2019-05-29T14:50:11.180Z,30.55
2019-05-29T14:52:40.632Z,30.74
2019-05-29T14:55:14.127Z,30.33
2019-05-29T14:57:40.062Z,31.05
2019-05-29T15:00:22.223Z,30.06
2019-05-29T15:02:41.605Z,30.37
2019-05-29T15:05:12.093Z,30.67
2019-05-29T15:07:41.444Z,30.68
2019-05-29T15:10:22.727Z,32.46
2019-05-29T15:12:41.139Z,33.64
2019-05-29T15:15:13.156Z,35.52
2019-05-29T15:17:41.390Z,35.31
2019-05-29T15:20:12.516Z,34.89
2019-05-29T15:22:42.207Z,34.83
2019-05-29T15:25:19.973Z,35.19
2019-05-29T15:27:42.027Z,33.63
2019-05-29T15:30:17.619Z,33.67
2019-05-29T15:32:42.475Z,33.11
2019-05-29T15:35:14.869Z,33.26
2019-05-29T15:37:42.062Z,33.18
2019-05-29T15:40:12.877Z,33.62
2019-05-29T15:42:41.687Z,34.46
2019-05-29T15:45:14.025Z,35.21
2019-05-29T15:47:42.940Z,35.93
2019-05-29T15:50:13.611Z,36.82
2019-05-29T15:52:43.231Z,36.65
2019-05-29T15:55:32.167Z,38.60
2019-05-29T15:57:44.689Z,39.26
2019-05-29T16:00:15.634Z,40.19
2019-05-29T16:02:48.378Z,40.56
2019-05-29T16:05:17.229Z,41.25
2019-05-29T16:07:46.367Z,40.66
2019-05-29T16:10:18.534Z,42.19
2019-05-29T16:12:45.916Z,42.26
2019-05-29T16:15:15.340Z,42.81
2019-05-29T16:17:44.289Z,43.20
2019-05-29T16:20:14.268Z,44.27
2019-05-29T16:22:43.341Z,44.21
2019-05-29T16:25:12.787Z,44.77
2019-05-29T16:27:41.664Z,45.17
2019-05-29T16:30:13.454Z,46.08
2019-05-29T16:32:42.459Z,46.03
2019-05-29T16:35:13.075Z,46.64
2019-05-29T16:37:41.976Z,46.74
2019-05-29T16:40:11.931Z,47.33
2019-05-29T16:42:40.682Z,46.96
2019-05-29T16:45:12.227Z,46.27
2019-05-29T16:47:41.059Z,46.19
2019-05-29T16:50:10.581Z,46.21
2019-05-29T16:52:39.539Z,46.15
2019-05-29T16:55:09.111Z,46.63
2019-05-29T16:57:37.852Z,47.06
2019-05-29T17:00:11.510Z,47.53
2019-05-29T17:02:40.401Z,48.08
2019-05-29T17:05:09.620Z,48.08
2019-05-29T17:07:38.906Z,48.21
2019-05-29T17:10:08.316Z,48.07
2019-05-29T17:12:37.058Z,48.50
2019-05-29T17:15:11.795Z,48.48
2019-05-29T17:17:40.504Z,48.44
2019-05-29T17:20:09.741Z,48.18
2019-05-29T17:22:38.785Z,48.55
2019-05-29T17:25:08.112Z,49.14
2019-05-29T17:27:36.828Z,49.14
2019-05-29T17:30:09.872Z,48.96
2019-05-29T17:32:38.606Z,49.10
2019-05-29T17:35:09.407Z,49.23
2019-05-29T17:37:38.544Z,49.26
2019-05-29T17:40:08.366Z,49.86
2019-05-29T17:42:37.083Z,49.81
2019-05-29T17:45:10.317Z,50.77
2019-05-29T17:47:39.471Z,51.44
2019-05-29T17:50:09.278Z,51.93
2019-05-29T17:52:38.091Z,52.58
2019-05-29T17:55:12.078Z,53.07
2019-05-29T17:57:40.799Z,52.94
2019-05-29T18:00:13.139Z,53.43
2019-05-29T18:02:51.509Z,53.67
2019-05-29T18:05:12.889Z,54.31
2019-05-29T18:07:41.870Z,54.31
2019-05-29T18:10:12.388Z,54.69
2019-05-29T18:12:41.201Z,54.98
2019-05-29T18:15:10.969Z,55.38
2019-05-29T18:17:39.883Z,55.94
2019-05-29T18:20:14.206Z,56.74
2019-05-29T18:22:41.028Z,57.16
2019-05-29T18:25:10.646Z,58.77
2019-05-29T18:27:39.361Z,59.26
2019-05-29T18:30:10.440Z,58.92
2019-05-29T18:32:39.172Z,59.19
2019-05-29T18:35:08.683Z,59.48
2019-05-29T18:37:37.534Z,59.77
2019-05-29T18:40:12.265Z,60.22
2019-05-29T18:42:38.400Z,60.67
2019-05-29T18:45:19.775Z,60.57
2019-05-29T18:47:38.607Z,60.87
2019-05-29T18:50:13.867Z,61.05
2019-05-29T18:52:42.593Z,61.23
2019-05-29T18:55:11.673Z,61.09
2019-05-29T18:57:40.560Z,61.51
2019-05-29T19:00:10.575Z,61.88
2019-05-29T19:02:39.391Z,62.15
2019-05-29T19:05:08.892Z,61.92
2019-05-29T19:07:37.636Z,62.19
2019-05-29T19:10:07.309Z,62.23
2019-05-29T19:12:36.186Z,62.65
2019-05-29T19:15:07.881Z,63.07
2019-05-29T19:17:36.611Z,62.37
2019-05-29T19:20:06.903Z,62.51
2019-05-29T19:22:35.608Z,61.71
2019-05-29T19:25:07.890Z,62.10
2019-05-29T19:27:41.408Z,61.68
2019-05-29T19:30:13.421Z,61.66
2019-05-29T19:32:42.910Z,62.01
2019-05-29T19:35:12.132Z,62.61
2019-05-29T19:37:40.904Z,62.87
2019-05-29T19:40:10.204Z,63.48
2019-05-29T19:42:38.950Z,64.36
2019-05-29T19:45:11.011Z,64.75
2019-05-29T19:47:39.861Z,65.21
2019-05-29T19:50:11.269Z,66.16
2019-05-29T19:52:40.231Z,66.42
2019-05-29T19:55:10.033Z,66.96
2019-05-29T19:57:54.925Z,67.88
2019-05-29T20:00:10.886Z,68.80
2019-05-29T20:02:40.449Z,69.45
2019-05-29T20:05:09.466Z,69.10
2019-05-29T20:07:38.681Z,69.61
2019-05-29T20:10:09.321Z,68.80
2019-05-29T20:12:39.515Z,68.59
2019-05-29T20:15:08.541Z,67.91
2019-05-29T20:17:38.518Z,68.19
2019-05-29T20:20:07.814Z,68.74
2019-05-29T20:22:36.991Z,69.11
2019-05-29T20:25:09.364Z,69.79
2019-05-29T20:27:38.559Z,70.54
2019-05-29T20:30:10.032Z,71.37
2019-05-29T20:32:39.054Z,73.16
2019-05-29T20:35:07.838Z,74.26
2019-05-29T20:37:36.559Z,75.28
2019-05-29T20:40:07.282Z,75.48
2019-05-29T20:42:36.377Z,75.92
2019-05-29T20:45:07.014Z,76.60
2019-05-29T20:47:35.869Z,76.34
2019-05-29T20:50:06.152Z,76.77
2019-05-29T20:52:35.210Z,77.58
2019-05-29T20:55:05.139Z,78.01
2019-05-29T20:57:33.868Z,78.08
2019-05-29T21:00:02.569Z,77.96
2019-05-29T21:02:32.030Z,77.65
2019-05-29T21:05:00.765Z,77.90
2019-05-29T21:07:29.478Z,78.41
2019-05-29T21:09:58.238Z,78.46
2019-05-29T21:12:26.963Z,78.63
2019-05-29T21:14:55.692Z,78.22
2019-05-29T21:17:24.446Z,78.26
2019-05-29T21:19:53.159Z,78.53
2019-05-29T21:22:22.802Z,78.58
2019-05-29T21:25:02.834Z,78.42
2019-05-29T21:27:22.127Z,78.87
2019-05-29T21:29:50.860Z,78.76
2019-05-29T21:32:19.691Z,78.82
2019-05-29T21:34:48.419Z,78.95
2019-05-29T21:37:17.134Z,79.27
2019-05-29T21:39:46.683Z,79.54
2019-05-29T21:42:15.588Z,79.93
2019-05-29T21:44:44.887Z,80.66
2019-05-29T21:47:13.868Z,80.65
2019-05-29T21:49:43.278Z,80.16
2019-05-29T21:52:12.105Z,80.30
2019-05-29T21:54:41.430Z,80.37
2019-05-29T21:57:10.182Z,80.17
2019-05-29T21:59:39.655Z,80.38
2019-05-29T22:02:09.145Z,80.67
2019-05-29T22:04:38.369Z,81.14
2019-05-29T22:07:07.457Z,81.61
2019-05-29T22:09:36.320Z,81.96
2019-05-29T22:12:05.242Z,82.00
2019-05-29T22:14:34.004Z,81.95
2019-05-29T22:17:02.892Z,82.06
2019-05-29T22:19:31.602Z,81.89
2019-05-29T22:22:01.308Z,81.87
2019-05-29T22:24:30.256Z,82.27
2019-05-29T22:26:59.370Z,83.44
2019-05-29T22:29:28.176Z,84.36
2019-05-29T22:31:57.535Z,85.08
2019-05-29T22:34:26.372Z,86.15
2019-05-29T22:36:55.459Z,87.25
2019-05-29T22:39:24.426Z,88.03
2019-05-29T22:41:53.457Z,88.61
2019-05-29T22:44:22.245Z,89.14
2019-05-29T22:46:51.647Z,90.17
2019-05-29T22:49:20.411Z,91.03
2019-05-29T22:51:49.126Z,91.80
2019-05-29T22:54:18.017Z,92.43
2019-05-29T22:56:46.730Z,93.07
2019-05-29T22:59:30.894Z,93.41
2019-05-29T23:01:45.956Z,94.18
2019-05-29T23:04:14.672Z,94.90
2019-05-29T23:06:43.388Z,95.54
2019-05-29T23:09:12.252Z,96.22
2019-05-29T23:11:40.967Z,96.16
2019-05-29T23:14:09.684Z,95.98
2019-05-29T23:16:38.735Z,95.60
2019-05-29T23:19:07.462Z,95.43
2019-05-29T23:21:36.162Z,94.86
2019-05-29T23:24:05.450Z,93.96
2019-05-29T23:26:34.175Z,93.50
2019-05-29T23:29:03.916Z,93.33
2019-05-29T23:31:32.722Z,92.10
2019-05-29T23:34:01.441Z,91.13
2019-05-29T23:36:30.155Z,89.94
2019-05-29T23:38:59.301Z,88.48
2019-05-29T23:41:28.041Z,88.25
2019-05-29T23:43:57.432Z,88.05
2019-05-29T23:46:26.390Z,88.27
2019-05-29T23:48:55.393Z,88.05
2019-05-29T23:51:24.215Z,87.92
2019-05-29T23:53:53.594Z,87.87
2019-05-29T23:56:22.388Z,88.12
2019-05-29T23:58:51.103Z,88.66
